createdAt,value
2023-02-16T00:03:37.507Z,25.70
2023-02-16T00:06:04.872Z,26.85
2023-02-16T00:08:32.108Z,26.35
2023-02-16T00:11:17.968Z,25.92
2023-02-16T00:13:45.294Z,27.63
2023-02-16T00:16:21.357Z,27.60
2023-02-16T00:18:49.061Z,26.52
2023-02-16T00:21:17.469Z,27.23
2023-02-16T00:23:44.868Z,26.65
2023-02-16T00:26:18.400Z,25.40
2023-02-16T00:28:45.916Z,25.77
2023-02-16T00:31:22.386Z,25.52
2023-02-16T00:33:50.386Z,25.00
2023-02-16T00:36:17.744Z,25.20
2023-02-16T00:38:45.183Z,24.38
2023-02-16T00:41:42.779Z,25.15
2023-02-16T00:44:19.797Z,24.30
2023-02-16T00:46:47.958Z,25.60
2023-02-16T00:49:17.098Z,25.08
2023-02-16T00:51:44.774Z,24.45
2023-02-16T00:54:12.213Z,23.70
2023-02-16T00:56:40.556Z,24.13
2023-02-16T00:59:12.159Z,23.98
2023-02-16T01:01:39.697Z,23.67
2023-02-16T01:04:10.575Z,23.67
2023-02-16T01:06:56.786Z,24.02
2023-02-16T01:09:42.475Z,23.98
2023-02-16T01:12:17.147Z,24.40
2023-02-16T01:17:13.040Z,24.15
2023-02-16T01:19:40.378Z,23.85
2023-02-16T01:22:07.627Z,23.67
2023-02-16T01:24:34.907Z,24.38
2023-02-16T01:27:02.326Z,24.88
2023-02-16T01:29:29.601Z,23.73
2023-02-16T01:31:57.026Z,23.58
2023-02-16T01:34:25.428Z,24.02
2023-02-16T01:36:52.647Z,24.48
2023-02-16T01:39:21.252Z,23.63
2023-02-16T01:42:07.047Z,23.35
2023-02-16T01:44:49.697Z,23.65
2023-02-16T01:47:41.323Z,23.98
2023-02-16T01:50:23.886Z,24.45
2023-02-16T01:52:58.981Z,23.25
2023-02-16T01:55:39.171Z,22.67
2023-02-16T01:58:42.022Z,23.20
2023-02-16T02:01:33.017Z,23.25
2023-02-16T02:04:19.084Z,23.60
2023-02-16T02:06:47.557Z,24.00
2023-02-16T02:09:23.964Z,23.30
2023-02-16T02:12:28.589Z,23.75
2023-02-16T02:14:56.361Z,23.65
2023-02-16T02:17:25.184Z,23.42
2023-02-16T02:20:09.579Z,22.10
2023-02-16T02:23:10.714Z,22.52
2023-02-16T02:26:10.479Z,23.02
2023-02-16T02:28:57.153Z,22.80
2023-02-16T02:31:42.287Z,22.30
2023-02-16T02:34:22.794Z,22.60
2023-02-16T02:37:08.358Z,22.63
2023-02-16T02:39:50.380Z,22.33
2023-02-16T02:42:37.821Z,22.10
2023-02-16T02:45:16.604Z,21.90
2023-02-16T02:47:46.381Z,21.77
2023-02-16T02:50:30.393Z,21.13
2023-02-16T02:53:02.186Z,22.30
2023-02-16T02:55:50.558Z,21.65
2023-02-16T02:58:41.442Z,21.52
2023-02-16T03:01:11.760Z,22.20
2023-02-16T03:03:49.561Z,21.75
2023-02-16T03:06:36.656Z,21.33
2023-02-16T03:09:11.286Z,21.23
2023-02-16T03:14:37.901Z,21.17
2023-02-16T03:17:29.666Z,21.55
2023-02-16T03:20:16.749Z,21.25
2023-02-16T03:23:03.643Z,20.23
2023-02-16T03:25:54.329Z,21.55
2023-02-16T03:28:44.105Z,21.05
2023-02-16T03:31:16.405Z,21.55
2023-02-16T03:33:45.097Z,20.80
2023-02-16T03:36:12.475Z,21.38
2023-02-16T03:38:39.895Z,21.75
2023-02-16T03:41:07.181Z,20.92
2023-02-16T03:43:35.196Z,21.00
2023-02-16T03:46:02.537Z,21.15
2023-02-16T03:48:29.852Z,20.65
2023-02-16T03:50:57.146Z,19.98
2023-02-16T03:53:24.405Z,20.40
2023-02-16T03:55:51.713Z,20.80
2023-02-16T03:58:21.844Z,21.17
2023-02-16T04:00:49.930Z,20.40
2023-02-16T04:03:17.609Z,20.67
2023-02-16T04:05:45.197Z,21.20
2023-02-16T04:08:12.913Z,21.00
2023-02-16T04:10:40.215Z,20.95
2023-02-16T04:13:07.524Z,20.48
2023-02-16T04:15:36.469Z,21.35
2023-02-16T04:18:04.055Z,20.48
2023-02-16T04:20:33.576Z,20.42
2023-02-16T04:23:01.700Z,20.52
2023-02-16T04:25:29.695Z,20.48
2023-02-16T04:27:57.496Z,20.00
2023-02-16T04:30:28.453Z,19.90
2023-02-16T04:32:56.373Z,19.48
2023-02-16T04:35:23.824Z,20.50
2023-02-16T04:37:51.029Z,20.15
2023-02-16T04:40:18.759Z,20.63
2023-02-16T04:42:46.679Z,20.58
2023-02-16T04:45:14.459Z,20.25
2023-02-16T04:47:42.210Z,20.38
2023-02-16T04:50:09.765Z,20.45
2023-02-16T04:52:37.535Z,19.92
2023-02-16T04:55:05.977Z,19.75
2023-02-16T04:57:33.266Z,19.90
2023-02-16T05:00:00.653Z,21.05
2023-02-16T05:02:28.106Z,19.45
2023-02-16T05:04:55.407Z,19.30
2023-02-16T05:07:22.678Z,20.02
2023-02-16T05:09:49.999Z,20.17
2023-02-16T05:12:35.806Z,20.77
2023-02-16T05:15:03.676Z,20.30
2023-02-16T05:17:31.743Z,20.23
2023-02-16T05:20:00.778Z,20.23
2023-02-16T05:22:28.947Z,20.17
2023-02-16T05:24:56.259Z,20.42
2023-02-16T05:27:28.737Z,19.42
2023-02-16T05:29:56.410Z,19.73
2023-02-16T05:32:23.859Z,19.67
2023-02-16T05:34:51.245Z,19.92
2023-02-16T05:37:19.401Z,19.00
2023-02-16T05:39:46.860Z,19.42
2023-02-16T05:42:14.312Z,18.92
2023-02-16T05:44:41.775Z,19.08
2023-02-16T05:47:09.101Z,19.08
2023-02-16T05:49:36.412Z,19.80
2023-02-16T05:52:03.718Z,19.30
2023-02-16T05:54:31.171Z,19.52
2023-02-16T05:56:58.497Z,19.60
2023-02-16T05:59:25.750Z,19.30
2023-02-16T06:01:53.073Z,19.63
2023-02-16T06:04:21.802Z,19.58
2023-02-16T06:06:50.044Z,18.90
2023-02-16T06:09:17.540Z,19.20
2023-02-16T06:11:45.221Z,18.80
2023-02-16T06:14:15.394Z,19.63
2023-02-16T06:16:45.938Z,18.52
2023-02-16T06:19:14.866Z,19.30
2023-02-16T06:21:42.523Z,19.80
2023-02-16T06:24:11.572Z,19.65
2023-02-16T06:26:39.327Z,20.20
2023-02-16T06:29:06.776Z,19.85
2023-02-16T06:31:36.339Z,20.50
2023-02-16T06:34:04.517Z,19.05
2023-02-16T06:36:32.618Z,21.00
2023-02-16T06:38:59.870Z,20.15
2023-02-16T06:41:37.808Z,20.67
2023-02-16T06:44:08.300Z,19.65
2023-02-16T06:46:36.486Z,20.15
2023-02-16T06:49:04.024Z,19.95
2023-02-16T06:51:31.739Z,20.65
2023-02-16T06:53:59.443Z,20.42
2023-02-16T06:56:26.754Z,21.02
2023-02-16T06:58:54.040Z,20.90
2023-02-16T07:01:25.607Z,19.88
2023-02-16T07:03:54.549Z,20.38
2023-02-16T07:06:23.408Z,20.65
2023-02-16T07:08:50.808Z,19.88
2023-02-16T07:11:18.200Z,20.10
2023-02-16T07:13:46.039Z,20.13
2023-02-16T07:16:14.478Z,19.67
2023-02-16T07:18:41.868Z,20.15
2023-02-16T07:21:09.176Z,20.35
2023-02-16T07:23:36.511Z,19.58
2023-02-16T07:26:03.908Z,19.85
2023-02-16T07:28:31.243Z,18.70
2023-02-16T07:30:58.597Z,20.30
2023-02-16T07:33:25.867Z,21.25
2023-02-16T07:35:53.217Z,19.95
2023-02-16T07:38:20.417Z,20.02
2023-02-16T07:40:47.708Z,20.55
2023-02-16T07:43:14.989Z,21.40
2023-02-16T07:45:42.511Z,22.50
2023-02-16T07:48:09.926Z,21.58
2023-02-16T07:50:37.704Z,21.50
2023-02-16T07:53:04.990Z,21.73
2023-02-16T07:55:32.295Z,21.63
2023-02-16T07:58:00.160Z,21.48
2023-02-16T08:00:27.971Z,21.88
2023-02-16T08:02:55.432Z,21.90
2023-02-16T08:05:22.893Z,22.45
2023-02-16T08:07:50.212Z,21.42
2023-02-16T08:10:17.672Z,21.60
2023-02-16T08:12:45.026Z,21.33
2023-02-16T08:15:12.661Z,22.08
2023-02-16T08:17:40.289Z,21.50
2023-02-16T08:20:09.636Z,21.58
2023-02-16T08:22:37.702Z,20.50
2023-02-16T08:25:07.009Z,21.50
2023-02-16T08:27:35.564Z,21.40
2023-02-16T08:30:03.569Z,21.00
2023-02-16T08:32:31.190Z,21.45
2023-02-16T08:34:58.583Z,21.42
2023-02-16T08:37:26.117Z,20.38
2023-02-16T08:39:53.870Z,20.77
2023-02-16T08:42:21.321Z,21.02
2023-02-16T08:44:48.686Z,20.58
2023-02-16T08:47:16.884Z,20.20
2023-02-16T08:49:44.507Z,19.85
2023-02-16T08:52:12.436Z,20.40
2023-02-16T08:54:40.217Z,19.85
2023-02-16T08:57:07.661Z,20.55
2023-02-16T08:59:35.083Z,20.92
2023-02-16T09:02:02.356Z,19.90
2023-02-16T09:04:30.191Z,20.42
2023-02-16T09:06:58.457Z,19.45
2023-02-16T09:09:27.052Z,19.98
2023-02-16T09:11:54.746Z,19.92
2023-02-16T09:14:23.200Z,19.88
2023-02-16T09:16:51.049Z,20.77
2023-02-16T09:19:20.659Z,19.77
2023-02-16T09:21:48.639Z,20.27
2023-02-16T09:24:16.299Z,18.80
2023-02-16T09:26:44.680Z,19.88
2023-02-16T09:29:13.889Z,19.77
2023-02-16T09:31:42.480Z,18.80
2023-02-16T09:34:17.662Z,19.48
2023-02-16T09:36:46.361Z,18.65
2023-02-16T09:39:14.463Z,19.10
2023-02-16T09:41:57.747Z,18.52
2023-02-16T09:44:53.121Z,17.70
2023-02-16T09:49:48.946Z,17.23
2023-02-16T09:52:40.286Z,18.75
2023-02-16T09:55:18.032Z,17.52
2023-02-16T09:58:21.621Z,18.25
2023-02-16T10:00:55.624Z,18.52
2023-02-16T10:03:38.303Z,19.48
2023-02-16T10:06:29.492Z,17.95
2023-02-16T10:09:02.872Z,18.40
2023-02-16T10:11:38.700Z,17.25
2023-02-16T10:14:16.075Z,18.73
2023-02-16T10:17:03.541Z,17.48
2023-02-16T10:19:40.813Z,17.30
2023-02-16T10:22:13.097Z,17.98
2023-02-16T10:24:59.704Z,17.75
2023-02-16T10:27:36.879Z,17.70
2023-02-16T10:30:12.258Z,17.52
2023-02-16T10:33:04.002Z,17.80
2023-02-16T10:35:50.695Z,16.80
2023-02-16T10:38:31.199Z,17.48
2023-02-16T10:41:26.225Z,17.65
2023-02-16T10:44:10.056Z,16.85
2023-02-16T10:46:43.932Z,17.25
2023-02-16T10:49:17.090Z,16.05
2023-02-16T10:51:49.381Z,17.60
2023-02-16T10:54:43.181Z,17.58
2023-02-16T10:57:27.030Z,16.75
2023-02-16T10:59:57.124Z,16.88
2023-02-16T11:02:37.038Z,17.95
2023-02-16T11:05:38.336Z,17.52
2023-02-16T11:08:07.744Z,16.48
2023-02-16T11:10:41.710Z,16.58
2023-02-16T11:13:29.692Z,17.67
2023-02-16T11:16:01.568Z,16.80
2023-02-16T11:18:37.893Z,16.15
2023-02-16T11:21:07.075Z,16.65
2023-02-16T11:23:42.750Z,16.95
2023-02-16T11:26:12.862Z,17.25
2023-02-16T11:28:45.870Z,16.83
2023-02-16T11:31:26.836Z,17.67
2023-02-16T11:34:03.272Z,17.00
2023-02-16T11:36:39.222Z,17.50
2023-02-16T11:39:23.315Z,16.73
2023-02-16T11:41:53.652Z,15.43
2023-02-16T11:44:36.805Z,16.60
2023-02-16T11:47:20.569Z,16.83
2023-02-16T11:49:48.547Z,16.27
2023-02-16T11:52:33.768Z,15.02
2023-02-16T11:55:02.231Z,15.52
2023-02-16T11:57:36.827Z,16.77
2023-02-16T12:00:24.557Z,17.05
2023-02-16T12:03:06.856Z,16.92
2023-02-16T12:05:56.581Z,17.27
2023-02-16T12:08:33.397Z,16.85
2023-02-16T12:11:16.571Z,16.65
2023-02-16T12:14:08.240Z,17.10
2023-02-16T12:17:05.747Z,17.08
2023-02-16T12:19:51.624Z,16.08
2023-02-16T12:22:24.780Z,17.15
2023-02-16T12:25:23.632Z,16.10
2023-02-16T12:27:53.988Z,16.15
2023-02-16T12:30:33.855Z,16.33
2023-02-16T12:33:07.989Z,15.98
2023-02-16T12:35:44.208Z,16.45
2023-02-16T12:38:28.704Z,16.02
2023-02-16T12:41:18.844Z,16.15
2023-02-16T12:43:50.383Z,15.80
2023-02-16T12:46:30.577Z,16.30
2023-02-16T12:49:02.578Z,14.73
2023-02-16T12:51:41.298Z,15.85
2023-02-16T12:54:33.382Z,15.02
2023-02-16T12:57:08.225Z,14.43
2023-02-16T12:59:49.000Z,14.15
2023-02-16T13:02:27.385Z,13.57
2023-02-16T13:05:21.199Z,13.80
2023-02-16T13:07:55.242Z,13.60
2023-02-16T13:10:33.607Z,14.57
2023-02-16T13:13:10.546Z,13.85
2023-02-16T13:15:47.634Z,13.95
2023-02-16T13:18:22.675Z,14.20
2023-02-16T13:20:59.220Z,13.30
2023-02-16T13:23:47.890Z,13.35
2023-02-16T13:26:42.961Z,13.55
2023-02-16T13:29:47.749Z,13.88
2023-02-16T13:32:38.588Z,13.50
2023-02-16T13:35:37.093Z,13.60
2023-02-16T13:38:18.507Z,13.82
2023-02-16T13:41:09.295Z,12.95
2023-02-16T13:43:54.291Z,13.25
2023-02-16T13:49:02.205Z,13.00
2023-02-16T13:51:42.325Z,13.27
2023-02-16T13:54:27.925Z,12.32
2023-02-16T13:56:55.162Z,12.05
2023-02-16T13:59:22.350Z,12.57
2023-02-16T14:01:51.171Z,11.75
2023-02-16T14:04:27.039Z,12.15
2023-02-16T14:07:03.343Z,12.00
2023-02-16T14:09:47.702Z,12.00
2023-02-16T14:12:31.873Z,11.13
2023-02-16T14:15:07.545Z,11.57
2023-02-16T14:17:36.194Z,11.40
2023-02-16T14:20:06.425Z,11.02
2023-02-16T14:22:45.769Z,11.65
2023-02-16T14:25:24.723Z,11.80
2023-02-16T14:27:54.987Z,11.82
2023-02-16T14:30:36.251Z,11.55
2023-02-16T14:33:23.740Z,11.68
2023-02-16T14:36:00.157Z,11.45
2023-02-16T14:38:36.897Z,11.43
2023-02-16T14:41:26.196Z,11.43
2023-02-16T14:44:03.849Z,11.25
2023-02-16T14:47:00.368Z,10.73
2023-02-16T14:50:03.788Z,11.27
2023-02-16T14:53:09.380Z,10.90
2023-02-16T14:56:09.260Z,10.43
2023-02-16T14:59:11.947Z,10.65
2023-02-16T15:01:44.125Z,10.57
2023-02-16T15:04:12.212Z,10.05
2023-02-16T15:06:44.482Z,10.40
2023-02-16T15:09:16.324Z,9.88
2023-02-16T15:12:09.766Z,9.68
2023-02-16T15:15:01.049Z,9.88
2023-02-16T15:17:41.666Z,9.98
2023-02-16T15:20:18.024Z,9.63
2023-02-16T15:22:53.804Z,9.30
2023-02-16T15:25:35.357Z,9.50
2023-02-16T15:28:16.673Z,9.93
2023-02-16T15:30:52.673Z,9.10
2023-02-16T15:33:25.640Z,9.52
2023-02-16T15:35:56.987Z,8.93
2023-02-16T15:38:28.009Z,8.88
2023-02-16T15:40:58.814Z,9.02
2023-02-16T15:43:26.759Z,8.98
2023-02-16T15:45:55.224Z,9.27
2023-02-16T15:48:27.967Z,8.88
2023-02-16T15:51:02.418Z,9.23
2023-02-16T15:53:41.685Z,8.98
2023-02-16T15:56:31.304Z,8.80
2023-02-16T15:59:03.161Z,8.82
2023-02-16T16:01:37.333Z,8.90
2023-02-16T16:04:20.911Z,8.48
2023-02-16T16:06:51.027Z,8.10
2023-02-16T16:09:31.059Z,8.48
2023-02-16T16:12:05.138Z,8.35
2023-02-16T16:14:35.681Z,8.90
2023-02-16T16:17:04.607Z,8.45
2023-02-16T16:19:34.811Z,8.45
2023-02-16T16:22:04.359Z,9.05
2023-02-16T16:24:38.183Z,8.55
2023-02-16T16:27:12.707Z,9.05
2023-02-16T16:29:41.528Z,8.60
2023-02-16T16:32:20.165Z,9.23
2023-02-16T16:34:48.706Z,9.18
2023-02-16T16:37:29.629Z,10.43
2023-02-16T16:40:08.001Z,10.43
2023-02-16T16:42:41.765Z,10.82
2023-02-16T16:45:20.952Z,11.07
2023-02-16T16:47:51.980Z,10.93
2023-02-16T16:50:33.426Z,11.00
2023-02-16T16:53:01.049Z,13.27
2023-02-16T16:55:31.763Z,12.68
2023-02-16T16:58:08.145Z,12.65
2023-02-16T17:00:38.471Z,12.80
2023-02-16T17:03:08.216Z,14.10
2023-02-16T17:05:38.362Z,15.13
2023-02-16T17:08:06.077Z,14.15
2023-02-16T17:10:35.102Z,13.73
2023-02-16T17:13:03.063Z,14.00
2023-02-16T17:15:39.307Z,14.75
2023-02-16T17:18:09.654Z,14.95
2023-02-16T17:20:36.884Z,16.20
2023-02-16T17:23:04.952Z,14.90
2023-02-16T17:25:35.848Z,15.30
2023-02-16T17:28:04.199Z,15.93
2023-02-16T17:30:32.157Z,17.30
2023-02-16T17:33:00.108Z,16.88
2023-02-16T17:35:27.836Z,17.00
2023-02-16T17:37:55.184Z,17.60
2023-02-16T17:40:23.826Z,17.73
2023-02-16T17:42:51.314Z,17.10
2023-02-16T17:45:22.662Z,17.58
2023-02-16T17:47:52.941Z,18.55
2023-02-16T17:50:21.432Z,18.25
2023-02-16T17:52:48.843Z,18.00
2023-02-16T17:55:16.400Z,18.13
2023-02-16T17:57:43.736Z,18.95
2023-02-16T18:00:17.680Z,18.65
2023-02-16T18:02:45.130Z,18.80
2023-02-16T18:05:12.449Z,18.15
2023-02-16T18:07:39.806Z,18.55
2023-02-16T18:10:08.391Z,18.27
2023-02-16T18:12:35.643Z,18.15
2023-02-16T18:15:03.097Z,18.58
2023-02-16T18:17:30.397Z,18.27
2023-02-16T18:19:57.717Z,18.73
2023-02-16T18:22:24.994Z,19.35
2023-02-16T18:24:52.234Z,19.25
2023-02-16T18:27:21.475Z,19.10
2023-02-16T18:29:48.848Z,18.50
2023-02-16T18:32:16.107Z,17.17
2023-02-16T18:34:43.782Z,19.08
2023-02-16T18:37:11.453Z,18.73
2023-02-16T18:39:40.748Z,18.80
2023-02-16T18:42:08.076Z,18.70
2023-02-16T18:44:35.933Z,20.52
2023-02-16T18:47:03.335Z,18.67
2023-02-16T18:49:30.718Z,18.38
2023-02-16T18:51:58.632Z,19.45
2023-02-16T18:54:26.210Z,18.92
2023-02-16T18:56:53.772Z,18.35
2023-02-16T18:59:21.025Z,18.42
2023-02-16T19:01:53.766Z,18.73
2023-02-16T19:04:21.106Z,19.27
2023-02-16T19:06:48.505Z,18.45
2023-02-16T19:09:15.852Z,17.88
2023-02-16T19:11:43.132Z,18.27
2023-02-16T19:14:11.572Z,18.65
2023-02-16T19:16:40.359Z,18.77
2023-02-16T19:19:07.757Z,18.65
2023-02-16T19:21:35.180Z,17.33
2023-02-16T19:24:02.419Z,18.00
2023-02-16T19:26:29.738Z,17.70
2023-02-16T19:28:57.222Z,18.15
2023-02-16T19:31:28.590Z,17.67
2023-02-16T19:33:56.891Z,16.40
2023-02-16T19:36:25.295Z,16.30
2023-02-16T19:38:53.385Z,16.52
2023-02-16T19:41:26.389Z,16.55
2023-02-16T19:43:53.994Z,16.42
2023-02-16T19:46:21.782Z,15.38
2023-02-16T19:48:49.236Z,15.88
2023-02-16T19:51:16.826Z,15.77
2023-02-16T19:53:44.820Z,16.02
2023-02-16T19:56:15.152Z,16.85
2023-02-16T19:58:42.599Z,16.60
2023-02-16T20:01:15.833Z,16.80
2023-02-16T20:03:43.594Z,15.90
2023-02-16T20:06:16.417Z,16.15
2023-02-16T20:08:44.371Z,16.48
2023-02-16T20:11:12.274Z,16.20
2023-02-16T20:13:39.815Z,15.45
2023-02-16T20:16:09.700Z,15.93
2023-02-16T20:18:38.681Z,15.52
2023-02-16T20:21:14.779Z,16.08
2023-02-16T20:23:42.941Z,16.30
2023-02-16T20:26:13.519Z,16.73
2023-02-16T20:28:41.312Z,15.77
2023-02-16T20:31:22.093Z,16.02
2023-02-16T20:33:49.667Z,15.55
2023-02-16T20:36:17.177Z,16.52
2023-02-16T20:38:44.893Z,15.38
2023-02-16T20:41:12.729Z,15.55
2023-02-16T20:43:40.310Z,14.63
2023-02-16T20:46:09.006Z,15.35
2023-02-16T20:48:36.939Z,14.98
2023-02-16T20:51:06.184Z,15.45
2023-02-16T20:53:35.164Z,15.25
2023-02-16T20:56:05.617Z,14.63
2023-02-16T20:58:34.293Z,15.18
2023-02-16T21:01:02.122Z,14.70
2023-02-16T21:03:29.406Z,14.77
2023-02-16T21:05:56.732Z,14.23
2023-02-16T21:08:23.999Z,13.35
2023-02-16T21:10:51.294Z,14.65
2023-02-16T21:13:18.590Z,13.82
2023-02-16T21:15:45.841Z,12.63
2023-02-16T21:18:13.132Z,13.50
2023-02-16T21:20:40.583Z,14.02
2023-02-16T21:23:08.096Z,14.93
2023-02-16T21:25:35.497Z,12.82
2023-02-16T21:28:03.070Z,15.10
2023-02-16T21:30:30.447Z,15.75
2023-02-16T21:32:57.832Z,13.77
2023-02-16T21:35:25.274Z,13.80
2023-02-16T21:37:52.538Z,12.82
2023-02-16T21:40:38.654Z,14.10
2023-02-16T21:43:05.984Z,13.00
2023-02-16T21:45:33.246Z,13.80
2023-02-16T21:48:19.369Z,13.90
2023-02-16T21:50:46.589Z,13.68
2023-02-16T21:53:13.948Z,12.63
2023-02-16T21:55:59.716Z,14.10
2023-02-16T21:58:27.161Z,13.40
2023-02-16T22:00:56.455Z,13.95
2023-02-16T22:03:23.774Z,13.80
2023-02-16T22:05:51.062Z,14.05
2023-02-16T22:08:18.520Z,13.63
2023-02-16T22:10:45.905Z,13.98
2023-02-16T22:13:13.186Z,12.35
2023-02-16T22:15:40.483Z,12.65
2023-02-16T22:18:08.102Z,13.20
2023-02-16T22:20:35.512Z,12.75
2023-02-16T22:23:03.504Z,11.95
2023-02-16T22:25:30.852Z,12.57
2023-02-16T22:27:58.111Z,12.55
2023-02-16T22:30:25.398Z,12.25
2023-02-16T22:32:52.652Z,11.45
2023-02-16T22:35:19.989Z,11.82
2023-02-16T22:37:47.216Z,11.50
2023-02-16T22:40:14.616Z,10.93
2023-02-16T22:42:41.883Z,10.50
2023-02-16T22:45:09.615Z,11.77
2023-02-16T22:47:36.835Z,10.77
2023-02-16T22:50:04.544Z,10.40
2023-02-16T22:52:31.831Z,10.13
2023-02-16T22:54:59.057Z,10.40
2023-02-16T22:57:26.392Z,10.55
2023-02-16T22:59:53.649Z,10.68
2023-02-16T23:02:20.943Z,10.35
2023-02-16T23:04:48.309Z,9.57
2023-02-16T23:07:15.596Z,9.80
2023-02-16T23:09:42.950Z,9.68
2023-02-16T23:12:10.619Z,9.77
2023-02-16T23:14:38.832Z,8.90
2023-02-16T23:17:06.135Z,9.68
2023-02-16T23:19:33.721Z,8.68
2023-02-16T23:22:01.063Z,8.75
2023-02-16T23:24:28.440Z,8.57
2023-02-16T23:26:56.440Z,8.80
2023-02-16T23:29:23.811Z,8.43
2023-02-16T23:31:52.371Z,7.93
2023-02-16T23:34:20.549Z,7.80
2023-02-16T23:36:48.211Z,8.05
2023-02-16T23:39:18.459Z,8.07
2023-02-16T23:41:46.119Z,7.80
2023-02-16T23:44:14.515Z,7.30
2023-02-16T23:46:41.895Z,7.82
2023-02-16T23:49:09.353Z,7.65
2023-02-16T23:51:36.644Z,7.28
2023-02-16T23:54:04.101Z,7.57
2023-02-16T23:56:31.414Z,7.10
2023-02-16T23:59:00.398Z,7.13
